createdAt,value
2022-10-30T00:01:47.126Z,16.87
2022-10-30T00:04:16.587Z,16.57
2022-10-30T00:06:47.007Z,16.63
2022-10-30T00:09:16.322Z,16.27
2022-10-30T00:11:45.277Z,16.07
2022-10-30T00:14:15.201Z,16.07
2022-10-30T00:16:44.237Z,15.73
2022-10-30T00:19:13.295Z,15.60
2022-10-30T00:21:42.409Z,15.37
2022-10-30T00:24:13.200Z,16.60
2022-10-30T00:26:42.321Z,14.63
2022-10-30T00:29:11.588Z,15.90
2022-10-30T00:31:40.546Z,16.33
2022-10-30T00:34:09.682Z,15.73
2022-10-30T00:36:38.677Z,16.27
2022-10-30T00:39:07.678Z,15.70
2022-10-30T00:41:39.806Z,16.27
2022-10-30T00:44:37.881Z,16.57
2022-10-30T00:47:13.489Z,16.40
2022-10-30T00:49:55.477Z,15.73
2022-10-30T00:52:26.996Z,15.60
2022-10-30T00:54:58.067Z,16.83
2022-10-30T00:57:29.329Z,16.57
2022-10-30T00:59:58.840Z,15.87
2022-10-30T01:02:28.808Z,16.13
2022-10-30T01:04:58.179Z,16.27
2022-10-30T01:07:27.231Z,17.23
2022-10-30T01:09:56.451Z,15.87
2022-10-30T01:12:25.430Z,16.83
2022-10-30T01:15:00.391Z,15.83
2022-10-30T01:17:56.892Z,16.50
2022-10-30T01:20:55.655Z,15.47
2022-10-30T01:23:37.085Z,17.17
2022-10-30T01:26:14.436Z,16.27
2022-10-30T01:29:01.598Z,15.97
2022-10-30T01:31:47.676Z,15.53
2022-10-30T01:34:21.396Z,16.77
2022-10-30T01:36:59.090Z,16.20
2022-10-30T01:39:30.514Z,15.50
2022-10-30T01:41:59.717Z,17.00
2022-10-30T01:44:33.249Z,15.63
2022-10-30T01:47:19.240Z,16.40
2022-10-30T01:50:17.639Z,15.53
2022-10-30T01:52:57.707Z,14.90
2022-10-30T01:55:38.565Z,14.93
2022-10-30T01:58:13.873Z,15.27
2022-10-30T02:00:45.115Z,15.10
2022-10-30T02:03:16.656Z,16.27
2022-10-30T02:05:49.675Z,16.47
2022-10-30T02:08:20.974Z,16.43
2022-10-30T02:10:53.444Z,15.27
2022-10-30T02:13:34.877Z,15.47
2022-10-30T02:16:04.454Z,16.43
2022-10-30T02:18:36.176Z,16.23
2022-10-30T02:21:09.278Z,16.37
2022-10-30T02:23:40.276Z,14.90
2022-10-30T02:26:09.406Z,15.17
2022-10-30T02:28:38.690Z,16.00
2022-10-30T02:31:08.054Z,15.73
2022-10-30T02:33:37.115Z,16.97
2022-10-30T02:36:09.045Z,15.60
2022-10-30T02:38:38.115Z,15.90
2022-10-30T02:41:07.395Z,15.90
2022-10-30T02:43:36.635Z,16.10
2022-10-30T02:46:06.196Z,16.60
2022-10-30T02:48:36.015Z,16.03
2022-10-30T02:51:05.846Z,17.67
2022-10-30T02:53:36.556Z,17.07
2022-10-30T02:56:06.595Z,17.80
2022-10-30T02:58:36.210Z,16.40
2022-10-30T03:01:10.054Z,16.40
2022-10-30T03:03:39.555Z,16.90
2022-10-30T03:06:11.005Z,16.80
2022-10-30T03:08:41.540Z,17.10
2022-10-30T03:11:12.734Z,17.27
2022-10-30T03:13:42.638Z,15.90
2022-10-30T03:16:13.918Z,15.27
2022-10-30T03:18:43.643Z,16.00
2022-10-30T03:21:14.987Z,16.13
2022-10-30T03:23:45.840Z,16.37
2022-10-30T03:26:15.146Z,15.90
2022-10-30T03:29:07.443Z,15.83
2022-10-30T03:31:36.518Z,15.33
2022-10-30T03:34:16.437Z,15.63
2022-10-30T03:36:45.622Z,14.93
2022-10-30T03:39:16.896Z,15.90
2022-10-30T03:41:48.035Z,15.00
2022-10-30T03:44:17.436Z,14.97
2022-10-30T03:46:46.719Z,15.57
2022-10-30T03:49:26.158Z,15.00
2022-10-30T03:51:56.605Z,15.60
2022-10-30T03:54:29.338Z,14.83
2022-10-30T03:56:58.441Z,15.43
2022-10-30T03:59:30.175Z,15.40
2022-10-30T04:02:28.519Z,15.47
2022-10-30T04:04:57.725Z,15.00
2022-10-30T04:07:26.754Z,14.77
2022-10-30T04:09:57.396Z,14.67
2022-10-30T04:12:26.478Z,14.60
2022-10-30T04:14:55.475Z,14.27
2022-10-30T04:17:24.674Z,15.93
2022-10-30T04:19:53.711Z,16.03
2022-10-30T04:22:23.078Z,15.03
2022-10-30T04:24:52.074Z,15.90
2022-10-30T04:27:22.532Z,15.40
2022-10-30T04:29:53.011Z,16.47
2022-10-30T04:32:22.394Z,16.00
2022-10-30T04:34:53.555Z,16.00
2022-10-30T04:37:23.000Z,16.83
2022-10-30T04:39:52.094Z,16.47
2022-10-30T04:42:28.170Z,16.30
2022-10-30T04:44:57.165Z,16.50
2022-10-30T04:47:26.437Z,17.53
2022-10-30T04:49:56.326Z,16.70
2022-10-30T04:52:25.566Z,16.80
2022-10-30T04:54:56.309Z,16.50
2022-10-30T04:57:25.283Z,17.67
2022-10-30T04:59:56.058Z,16.60
2022-10-30T05:02:26.010Z,16.80
2022-10-30T05:04:55.585Z,16.97
2022-10-30T05:07:25.066Z,18.13
2022-10-30T05:09:55.033Z,16.53
2022-10-30T05:12:25.658Z,16.17
2022-10-30T05:14:58.078Z,16.63
2022-10-30T05:17:27.197Z,16.33
2022-10-30T05:19:56.956Z,16.20
2022-10-30T05:22:26.046Z,16.67
2022-10-30T05:24:55.050Z,17.67
2022-10-30T05:27:24.838Z,16.83
2022-10-30T05:29:54.015Z,16.40
2022-10-30T05:32:24.643Z,17.33
2022-10-30T05:34:54.845Z,16.30
2022-10-30T05:37:25.519Z,16.20
2022-10-30T05:39:54.647Z,16.80
2022-10-30T05:42:28.933Z,17.90
2022-10-30T05:45:02.057Z,16.87
2022-10-30T05:47:36.917Z,17.07
2022-10-30T05:50:06.516Z,17.37
2022-10-30T05:52:35.588Z,17.60
2022-10-30T05:55:05.015Z,16.63
2022-10-30T05:57:44.916Z,17.83
2022-10-30T06:00:15.325Z,17.80
2022-10-30T06:02:45.776Z,16.60
2022-10-30T06:05:17.524Z,16.13
2022-10-30T06:07:46.524Z,16.60
2022-10-30T06:10:15.726Z,16.87
2022-10-30T06:13:04.631Z,16.10
2022-10-30T06:15:40.595Z,15.43
2022-10-30T06:18:11.765Z,16.03
2022-10-30T06:20:46.796Z,15.97
2022-10-30T06:23:38.920Z,14.90
2022-10-30T06:26:30.984Z,14.50
2022-10-30T06:29:06.335Z,13.30
2022-10-30T06:31:35.558Z,13.37
2022-10-30T06:34:06.837Z,13.23
2022-10-30T06:36:38.687Z,12.63
2022-10-30T06:39:08.116Z,12.63
2022-10-30T06:41:46.735Z,12.53
2022-10-30T06:44:38.838Z,12.00
2022-10-30T06:47:07.894Z,10.90
2022-10-30T06:49:38.685Z,11.77
2022-10-30T06:52:07.704Z,10.67
2022-10-30T06:54:36.873Z,11.27
2022-10-30T06:57:24.345Z,11.27
2022-10-30T07:00:26.216Z,11.53
2022-10-30T07:03:18.685Z,12.70
2022-10-30T07:05:49.728Z,12.73
2022-10-30T07:08:18.790Z,12.63
2022-10-30T07:10:47.942Z,12.70
2022-10-30T07:13:27.846Z,14.17
2022-10-30T07:16:02.300Z,12.90
2022-10-30T07:18:37.474Z,13.30
2022-10-30T07:21:09.245Z,14.00
2022-10-30T07:23:39.130Z,14.63
2022-10-30T07:26:31.114Z,14.03
2022-10-30T07:29:05.945Z,14.63
2022-10-30T07:31:57.727Z,14.73
2022-10-30T07:34:52.512Z,14.13
2022-10-30T07:37:33.411Z,13.33
2022-10-30T07:40:12.775Z,13.60
2022-10-30T07:43:02.549Z,13.93
2022-10-30T07:45:55.762Z,13.33
2022-10-30T07:48:43.412Z,13.07
2022-10-30T07:51:30.835Z,13.07
2022-10-30T07:54:01.811Z,13.53
2022-10-30T07:56:34.309Z,12.60
2022-10-30T07:59:32.629Z,13.30
2022-10-30T08:02:21.912Z,12.80
2022-10-30T08:05:16.957Z,12.93
2022-10-30T08:08:05.266Z,12.97
2022-10-30T08:10:36.261Z,13.17
2022-10-30T08:13:05.487Z,13.60
2022-10-30T08:15:35.373Z,12.73
2022-10-30T08:18:04.963Z,12.70
2022-10-30T08:20:35.165Z,11.77
2022-10-30T08:23:04.422Z,13.23
2022-10-30T08:25:36.431Z,13.90
2022-10-30T08:28:08.516Z,12.97
2022-10-30T08:30:40.177Z,12.25
2022-10-30T08:33:15.023Z,12.18
2022-10-30T08:35:56.937Z,12.02
2022-10-30T08:38:27.721Z,11.13
2022-10-30T08:41:30.957Z,10.70
2022-10-30T08:44:00.501Z,10.93
2022-10-30T08:46:40.387Z,11.07
2022-10-30T08:49:11.219Z,11.02
2022-10-30T08:51:46.486Z,10.43
2022-10-30T08:54:15.979Z,10.45
2022-10-30T08:56:48.332Z,10.95
2022-10-30T08:59:21.132Z,11.25
2022-10-30T09:01:55.358Z,11.43
2022-10-30T09:04:24.500Z,11.07
2022-10-30T09:07:11.922Z,11.82
2022-10-30T09:10:02.197Z,11.13
2022-10-30T09:12:36.394Z,11.75
2022-10-30T09:15:06.709Z,11.63
2022-10-30T09:17:47.752Z,11.18
2022-10-30T09:20:22.196Z,11.55
2022-10-30T09:22:51.654Z,11.18
2022-10-30T09:25:23.779Z,11.32
2022-10-30T09:28:18.090Z,11.20
2022-10-30T09:31:15.787Z,10.98
2022-10-30T09:33:46.551Z,11.15
2022-10-30T09:36:39.284Z,10.65
2022-10-30T09:39:10.487Z,11.48
2022-10-30T09:42:09.102Z,10.82
2022-10-30T09:45:15.116Z,11.40
2022-10-30T09:47:53.487Z,11.00
2022-10-30T09:50:35.721Z,11.20
2022-10-30T09:53:20.675Z,11.00
2022-10-30T09:56:01.721Z,9.18
2022-10-30T09:58:49.638Z,8.48
2022-10-30T10:01:31.208Z,8.50
2022-10-30T10:04:20.915Z,8.77
2022-10-30T10:07:26.233Z,8.90
2022-10-30T10:10:10.103Z,8.13
2022-10-30T10:12:58.682Z,8.40
2022-10-30T10:15:44.038Z,8.32
2022-10-30T10:18:20.949Z,8.15
2022-10-30T10:20:58.708Z,7.13
2022-10-30T10:23:36.026Z,6.70
2022-10-30T10:26:18.188Z,7.00
2022-10-30T10:29:05.216Z,6.53
2022-10-30T10:31:45.579Z,6.65
2022-10-30T10:34:30.838Z,7.03
2022-10-30T10:37:06.626Z,6.72
2022-10-30T10:39:50.679Z,6.18
2022-10-30T10:42:27.324Z,6.88
2022-10-30T10:45:18.480Z,6.95
2022-10-30T10:48:21.361Z,7.07
2022-10-30T10:50:57.641Z,6.68
2022-10-30T10:53:30.703Z,6.40
2022-10-30T10:56:02.283Z,6.18
2022-10-30T10:58:37.889Z,5.78
2022-10-30T11:01:13.923Z,6.13
2022-10-30T11:03:51.374Z,6.10
2022-10-30T11:06:32.885Z,5.60
2022-10-30T11:09:20.128Z,5.97
2022-10-30T11:12:03.469Z,6.95
2022-10-30T11:14:39.975Z,6.10
2022-10-30T11:17:23.650Z,6.30
2022-10-30T11:20:20.457Z,5.68
2022-10-30T11:22:52.577Z,6.20
2022-10-30T11:25:26.936Z,5.68
2022-10-30T11:28:02.527Z,5.63
2022-10-30T11:30:34.727Z,5.40
2022-10-30T11:33:26.311Z,5.55
2022-10-30T11:35:58.906Z,5.85
2022-10-30T11:38:29.686Z,4.97
2022-10-30T11:41:01.381Z,4.60
2022-10-30T11:43:31.241Z,5.05
2022-10-30T11:46:00.389Z,4.30
2022-10-30T11:48:32.949Z,4.38
2022-10-30T11:51:04.729Z,3.50
2022-10-30T11:53:39.526Z,3.20
2022-10-30T11:56:26.703Z,2.67
2022-10-30T11:58:58.389Z,2.90
2022-10-30T12:01:29.938Z,2.70
2022-10-30T12:11:10.150Z,4.53
2022-10-30T12:17:01.893Z,4.53
2022-10-30T12:19:33.261Z,5.18
2022-10-30T12:22:06.379Z,5.15
2022-10-30T12:24:42.270Z,5.47
2022-10-30T12:27:22.469Z,5.03
2022-10-30T12:30:28.507Z,5.43
2022-10-30T12:33:02.534Z,5.35
2022-10-30T12:35:46.794Z,5.22
2022-10-30T12:38:21.768Z,4.20
2022-10-30T12:41:02.952Z,4.65
2022-10-30T12:43:37.069Z,4.45
2022-10-30T12:46:26.869Z,4.72
2022-10-30T12:49:19.720Z,4.22
2022-10-30T12:51:56.510Z,4.40
2022-10-30T12:54:32.921Z,4.25
2022-10-30T12:57:09.924Z,4.32
2022-10-30T12:59:52.200Z,4.95
2022-10-30T13:02:31.638Z,4.43
2022-10-30T13:05:05.752Z,5.03
2022-10-30T13:07:41.539Z,4.78
2022-10-30T13:10:27.624Z,4.55
2022-10-30T13:13:02.322Z,4.78
2022-10-30T13:15:38.151Z,4.93
2022-10-30T13:18:17.743Z,4.53
2022-10-30T13:21:03.245Z,4.40
2022-10-30T13:23:40.639Z,4.13
2022-10-30T13:26:17.159Z,4.45
2022-10-30T13:28:53.895Z,4.00
2022-10-30T13:31:34.885Z,4.10
2022-10-30T13:34:11.766Z,3.70
2022-10-30T13:36:48.689Z,3.65
2022-10-30T13:39:29.078Z,3.67
2022-10-30T13:42:08.325Z,3.85
2022-10-30T13:44:48.404Z,4.50
2022-10-30T13:47:29.922Z,6.78
2022-10-30T13:50:16.545Z,6.82
2022-10-30T13:52:50.994Z,5.03
2022-10-30T13:55:23.901Z,5.40
2022-10-30T13:57:59.117Z,4.43
2022-10-30T14:00:40.017Z,4.75
2022-10-30T14:03:25.735Z,4.40
2022-10-30T14:06:03.094Z,3.88
2022-10-30T14:08:38.768Z,3.70
2022-10-30T14:11:10.189Z,3.70
2022-10-30T14:13:55.722Z,3.88
2022-10-30T14:16:41.778Z,3.50
2022-10-30T14:19:13.434Z,3.60
2022-10-30T14:21:53.231Z,3.67
2022-10-30T14:24:28.824Z,3.58
2022-10-30T14:27:11.812Z,3.50
2022-10-30T14:29:48.204Z,3.75
2022-10-30T14:32:40.685Z,3.63
2022-10-30T14:35:41.880Z,4.10
2022-10-30T14:38:35.973Z,3.77
2022-10-30T14:41:32.977Z,3.50
2022-10-30T14:44:31.545Z,3.53
2022-10-30T14:47:17.130Z,4.53
2022-10-30T14:49:49.254Z,6.00
2022-10-30T14:52:31.285Z,5.20
2022-10-30T14:55:20.254Z,4.90
2022-10-30T14:57:54.266Z,4.67
2022-10-30T15:00:43.733Z,4.90
2022-10-30T15:03:41.567Z,5.67
2022-10-30T15:06:25.346Z,4.70
2022-10-30T15:09:23.005Z,4.00
2022-10-30T15:12:07.718Z,4.15
2022-10-30T15:14:52.645Z,4.93
2022-10-30T15:17:29.793Z,5.77
2022-10-30T15:20:01.455Z,4.60
2022-10-30T15:22:31.945Z,4.80
2022-10-30T15:25:03.506Z,6.70
2022-10-30T15:27:36.031Z,5.20
2022-10-30T15:30:06.445Z,5.15
2022-10-30T15:32:35.718Z,5.37
2022-10-30T15:35:14.729Z,6.13
2022-10-30T15:38:01.744Z,5.23
2022-10-30T15:40:33.023Z,5.50
2022-10-30T15:43:03.862Z,6.77
2022-10-30T15:45:36.304Z,5.90
2022-10-30T15:48:10.276Z,6.03
2022-10-30T15:50:48.217Z,6.03
2022-10-30T15:53:20.656Z,6.33
2022-10-30T15:55:51.825Z,6.97
2022-10-30T15:58:24.911Z,5.97
2022-10-30T16:01:26.352Z,6.43
2022-10-30T16:04:00.649Z,6.10
2022-10-30T16:06:32.449Z,6.70
2022-10-30T16:09:10.966Z,6.83
2022-10-30T16:11:42.385Z,6.53
2022-10-30T16:14:22.275Z,5.90
2022-10-30T16:17:07.972Z,6.17
2022-10-30T16:19:45.115Z,6.70
2022-10-30T16:22:29.898Z,6.77
2022-10-30T16:25:00.947Z,6.50
2022-10-30T16:27:32.159Z,6.50
2022-10-30T16:30:05.529Z,6.40
2022-10-30T16:32:36.060Z,6.67
2022-10-30T16:35:07.206Z,7.03
2022-10-30T16:37:38.680Z,6.47
2022-10-30T16:40:15.169Z,6.20
2022-10-30T16:42:50.674Z,6.83
2022-10-30T16:45:51.205Z,6.70
2022-10-30T16:48:29.185Z,7.10
2022-10-30T16:51:04.245Z,7.60
2022-10-30T16:53:34.117Z,7.77
2022-10-30T16:56:04.608Z,7.50
2022-10-30T16:58:36.104Z,7.00
2022-10-30T17:01:08.886Z,7.43
2022-10-30T17:03:42.000Z,7.60
2022-10-30T17:06:28.917Z,7.40
2022-10-30T17:09:04.437Z,7.57
2022-10-30T17:11:40.245Z,7.70
2022-10-30T17:14:21.024Z,8.03
2022-10-30T17:16:55.566Z,7.27
2022-10-30T17:19:47.923Z,7.60
2022-10-30T17:22:21.295Z,7.20
2022-10-30T17:24:51.005Z,7.90
2022-10-30T17:27:48.834Z,8.07
2022-10-30T17:30:38.206Z,8.97
2022-10-30T17:33:34.491Z,8.63
2022-10-30T17:36:06.287Z,8.97
2022-10-30T17:38:35.919Z,9.40
2022-10-30T17:41:06.384Z,9.07
2022-10-30T17:43:50.258Z,10.00
2022-10-30T17:46:21.547Z,9.70
2022-10-30T17:48:51.406Z,10.53
2022-10-30T17:51:21.569Z,10.07
2022-10-30T17:53:52.926Z,10.03
2022-10-30T17:56:28.379Z,8.70
2022-10-30T17:58:58.266Z,8.63
2022-10-30T18:01:30.672Z,9.47
2022-10-30T18:04:01.133Z,8.47
2022-10-30T18:06:31.494Z,8.40
2022-10-30T18:09:01.004Z,8.60
2022-10-30T18:11:30.390Z,8.20
2022-10-30T18:14:01.883Z,8.23
2022-10-30T18:16:51.299Z,7.83
2022-10-30T18:19:32.993Z,8.27
2022-10-30T18:22:02.474Z,9.43
2022-10-30T18:24:32.037Z,10.93
2022-10-30T18:27:01.607Z,9.40
2022-10-30T18:29:31.506Z,8.90
2022-10-30T18:32:08.392Z,9.10
2022-10-30T18:34:39.410Z,7.40
2022-10-30T18:37:08.802Z,7.07
2022-10-30T18:42:12.653Z,7.50
2022-10-30T18:44:42.344Z,7.17
2022-10-30T18:47:13.532Z,8.60
2022-10-30T18:49:42.677Z,8.60
2022-10-30T18:52:12.398Z,7.43
2022-10-30T18:54:42.168Z,8.97
2022-10-30T18:57:14.388Z,8.53
2022-10-30T18:59:43.728Z,8.70
2022-10-30T19:02:22.750Z,8.20
2022-10-30T19:04:52.888Z,7.47
2022-10-30T19:07:22.912Z,7.60
2022-10-30T19:09:52.771Z,7.53
2022-10-30T19:12:22.399Z,7.60
2022-10-30T19:14:55.313Z,8.00
2022-10-30T19:17:27.477Z,9.10
2022-10-30T19:19:56.951Z,8.37
2022-10-30T19:22:26.398Z,8.43
2022-10-30T19:24:56.058Z,9.53
2022-10-30T19:27:26.973Z,9.00
2022-10-30T19:29:56.728Z,10.00
2022-10-30T19:32:27.513Z,11.03
2022-10-30T19:34:57.659Z,12.00
2022-10-30T19:37:27.383Z,12.37
2022-10-30T19:39:57.131Z,13.27
2022-10-30T19:42:27.696Z,13.30
2022-10-30T19:44:57.573Z,13.27
2022-10-30T19:47:28.739Z,14.07
2022-10-30T19:49:58.621Z,13.93
2022-10-30T19:52:29.534Z,14.33
2022-10-30T19:54:59.452Z,14.63
2022-10-30T19:57:30.417Z,14.43
2022-10-30T19:59:59.855Z,14.47
2022-10-30T20:02:31.535Z,14.03
2022-10-30T20:05:01.213Z,14.87
2022-10-30T20:07:30.894Z,15.37
2022-10-30T20:10:00.678Z,14.43
2022-10-30T20:12:30.150Z,14.77
2022-10-30T20:14:59.846Z,13.70
2022-10-30T20:17:30.435Z,14.17
2022-10-30T20:19:59.796Z,14.37
2022-10-30T20:22:29.552Z,14.20
2022-10-30T20:24:59.314Z,14.00
2022-10-30T20:27:28.843Z,14.47
2022-10-30T20:29:58.507Z,14.23
2022-10-30T20:32:30.558Z,13.27
2022-10-30T20:35:00.407Z,13.23
2022-10-30T20:37:30.556Z,12.40
2022-10-30T20:40:00.341Z,10.70
2022-10-30T20:42:34.440Z,10.23
2022-10-30T20:45:07.344Z,10.27
2022-10-30T20:47:38.304Z,10.00
2022-10-30T20:50:08.695Z,10.97
2022-10-30T20:52:38.468Z,13.80
2022-10-30T20:55:08.752Z,15.23
2022-10-30T21:00:15.035Z,17.83
2022-10-30T21:02:45.952Z,16.97
2022-10-30T21:05:30.629Z,16.97
2022-10-30T21:08:05.843Z,16.07
2022-10-30T21:10:35.515Z,14.00
2022-10-30T21:13:08.673Z,12.90
2022-10-30T21:15:40.407Z,12.53
2022-10-30T21:18:12.974Z,12.80
2022-10-30T21:20:42.696Z,15.00
2022-10-30T21:23:13.296Z,14.93
2022-10-30T21:25:42.573Z,15.20
2022-10-30T21:28:11.719Z,16.50
2022-10-30T21:30:40.893Z,16.37
2022-10-30T21:33:11.574Z,16.67
2022-10-30T21:35:40.894Z,16.43
2022-10-30T21:38:10.002Z,16.17
2022-10-30T21:40:39.145Z,16.57
2022-10-30T21:43:08.355Z,17.13
2022-10-30T21:45:38.852Z,16.80
2022-10-30T21:48:08.627Z,15.37
2022-10-30T21:50:39.245Z,12.90
2022-10-30T21:53:08.528Z,12.23
2022-10-30T21:55:40.077Z,13.43
2022-10-30T21:58:09.260Z,16.73
2022-10-30T22:00:38.601Z,18.37
2022-10-30T22:03:07.953Z,17.33
2022-10-30T22:05:38.609Z,17.37
2022-10-30T22:08:07.802Z,16.00
2022-10-30T22:10:36.984Z,13.03
2022-10-30T22:13:06.239Z,11.80
2022-10-30T22:15:35.520Z,15.53
2022-10-30T22:18:04.582Z,17.00
2022-10-30T22:20:33.684Z,17.37
2022-10-30T22:23:04.486Z,19.53
2022-10-30T22:25:33.663Z,19.43
2022-10-30T22:28:03.100Z,19.97
2022-10-30T22:30:33.412Z,20.83
2022-10-30T22:33:02.649Z,20.03
2022-10-30T22:35:32.273Z,19.73
2022-10-30T22:38:01.387Z,19.40
2022-10-30T22:40:32.028Z,20.53
2022-10-30T22:43:01.470Z,20.10
2022-10-30T22:45:30.873Z,21.03
2022-10-30T22:48:00.361Z,18.50
2022-10-30T22:50:29.905Z,15.30
2022-10-30T22:53:00.217Z,13.47
2022-10-30T22:55:31.617Z,13.47
2022-10-30T22:58:00.977Z,14.60
2022-10-30T23:00:30.626Z,19.30
2022-10-30T23:03:00.739Z,19.43
2022-10-30T23:05:30.278Z,19.40
2022-10-30T23:07:59.548Z,19.73
2022-10-30T23:10:29.311Z,20.33
2022-10-30T23:13:00.180Z,21.67
2022-10-30T23:15:29.583Z,22.13
2022-10-30T23:17:58.984Z,23.00
2022-10-30T23:20:28.334Z,29.80
2022-10-30T23:22:57.518Z,43.70
2022-10-30T23:25:26.666Z,43.43
2022-10-30T23:27:56.162Z,36.40
2022-10-30T23:30:26.873Z,26.63
2022-10-30T23:32:56.029Z,21.83
2022-10-30T23:35:25.176Z,26.10
2022-10-30T23:37:54.327Z,27.60
2022-10-30T23:40:23.577Z,34.13
2022-10-30T23:42:55.592Z,32.77
2022-10-30T23:45:26.185Z,28.60
2022-10-30T23:47:55.199Z,29.83
2022-10-30T23:50:24.463Z,34.10
2022-10-30T23:52:53.756Z,32.63
2022-10-30T23:55:23.074Z,31.37
2022-10-30T23:57:52.486Z,30.47
